• Join FlightAware (Why Join?)
  • Login
  • US Flag 
02:20PM EDT


 

Airport Tracker/Info


-or-


 

Live Flight TrackerFlight Track Log ✈ N328AJ ✈ 04-Oct-2013 ✈ KCMH - KTEB

Flight Track Log - Related Links

Times and Time Zones

All times are in EDT time to prevent confusion due to time zone crossing. See the N328AJ flight status page for this flight to view local times or setup timezone preferences in your user account.

Time Position Orientation Groundspeed Altitude Reporting Facility
EDT Latitude Longitude Course Direction KTS MPH feet Rate Location/Type
08:11AM 39.9986 -82.9039 23° Northeast 158 182 1,200  Level Indianapolis Center
08:13AM 40.0514 -82.8747 23° Northeast 182 209 3,300 1,560 Climbing Indianapolis Center
08:13AM 40.0500 -82.8711 117° Southeast 212 244 3,300 1,620 Level Indianapolis Center
08:14AM 40.0594 -82.7911 81° East 228 262 5,000 1,800 Climbing Indianapolis Center
08:14AM 40.0611 -82.7744 83° East 236 272 5,300 1,800 Climbing Indianapolis Center
08:15AM 40.0653 -82.7067 85° East 239 275 6,900 1,500 Climbing Indianapolis Center
08:16AM 40.0692 -82.6228 87° East 233 268 8,300 1,200 Climbing Indianapolis Center
08:17AM 40.0733 -82.5317 87° East 246 283 9,500 1,020 Climbing Indianapolis Center
08:18AM 40.0803 -82.4347 85° East 264 304 10,400 960 Climbing Indianapolis Center
08:19AM 40.0931 -82.3150 82° East 276 318 11,500 960 Climbing Indianapolis Center
08:20AM 40.1119 -82.2183 76° East 273 314 12,400 840 Climbing Indianapolis Center
08:21AM 40.1733 -82.1594 36° Northeast 273 314 13,300 900 Climbing Indianapolis Center
08:22AM 40.2225 -82.0836 50° Northeast 278 320 14,300 1,080 Climbing Indianapolis Center
08:23AM 40.2669 -81.9900 58° Northeast 272 313 15,600 1,140 Climbing Indianapolis Center
08:24AM 40.2956 -81.8992 68° East 270 311 16,700 1,020 Climbing Indianapolis Center
08:25AM 40.3086 -81.8039 80° East 275 316 17,800 960 Climbing Indianapolis Center
08:26AM 40.3067 -81.7081 91° East 262 302 18,700 960 Climbing Indianapolis Center
08:27AM 40.3042 -81.6108 92° East 265 305 19,900 1,080 Climbing Indianapolis Center
08:28AM 40.3022 -81.5150 91° East 262 302 21,000 480 Climbing Indianapolis Center
08:29AM 40.2969 -81.4147 94° East 271 312 21,000 180 Level Indianapolis Center
08:30AM 40.2919 -81.3006 93° East 303 349 21,400 480 Climbing Indianapolis Center
08:31AM 40.2889 -81.1944 92° East 295 339 22,100 720 Climbing Indianapolis Center
08:32AM 40.3131 -81.0778 75° East 285 328 22,900 420 Climbing Indianapolis Center
08:33AM 40.3342 -80.9736 75° East 290 334 23,000  Climbing Indianapolis Center
08:34AM 40.3556 -80.8725 74° East 303 349 23,000  Level Cleveland Center
08:35AM 40.3789 -80.7611 75° East 314 361 23,000  Level Cleveland Center
08:36AM 40.4025 -80.6489 75° East 318 366 23,000  Level Cleveland Center
08:37AM 40.4308 -80.5144 74° East 319 367 23,000  Level Cleveland Center
08:38AM 40.4542 -80.4006 75° East 320 368 23,000  Level Cleveland Center
08:39AM 40.4756 -80.2981 75° East 319 367 23,000  Level Cleveland Center
08:40AM 40.5014 -80.1631 76° East 318 366 23,000  Level Cleveland Center
08:41AM 40.5236 -80.0514 75° East 318 366 23,000  Level Cleveland Center
08:42AM 40.5461 -79.9425 75° East 321 369 23,000  Level Cleveland Center
08:43AM 40.5681 -79.8297 76° East 319 367 23,000  Level Cleveland Center
08:44AM 40.5908 -79.7161 75° East 321 369 23,000  Level Cleveland Center
08:46AM 40.6131 -79.6028 75° East 321 369 23,000  Level Cleveland Center
08:47AM 40.6350 -79.4897 76° East 320 368 23,000  Level Cleveland Center
08:48AM 40.6611 -79.3547 76° East 319 367 23,000  Level Cleveland Center
08:49AM 40.6822 -79.2417 76° East 318 366 23,000  Level Cleveland Center
08:50AM 40.7047 -79.1281 75° East 320 368 23,000  Level Cleveland Center
08:51AM 40.7264 -79.0147 76° East 320 368 23,000  Level Cleveland Center
08:52AM 40.7511 -78.8842 76° East 316 364 23,000  Level Cleveland Center
08:53AM 40.7731 -78.7711 76° East 321 369 23,000  Level Cleveland Center
08:54AM 40.7942 -78.6578 76° East 322 371 23,000  Level Cleveland Center
08:55AM 40.8144 -78.5461 76° East 319 367 23,000  Level Cleveland Center
08:56AM 40.8356 -78.4336 76° East 321 369 23,000  Level Cleveland Center
08:57AM 40.8608 -78.3092 75° East 322 371 23,000  Level Cleveland Center
08:58AM 40.8811 -78.1850 78° East 322 371 23,000  Level Cleveland Center
08:59AM 40.9025 -78.0717 76° East 321 369 23,000  Level Cleveland Center
09:00AM 40.9300 -77.9633 71° East 316 364 23,000  Level Cleveland Center
09:01AM 40.9758 -77.8642 59° Northeast 320 368 23,000  Level Cleveland Center
09:02AM 41.0103 -77.7808 61° Northeast 307 353 23,000  Level New York Center
09:03AM 41.0556 -77.6808 59° Northeast 307 353 23,000  Level New York Center
09:04AM 41.1011 -77.5808 59° Northeast 312 359 23,000  Level New York Center
09:05AM 41.1442 -77.4803 60° Northeast 317 365 23,000  Level New York Center
09:06AM 41.1894 -77.3828 58° Northeast 317 365 23,000  Level New York Center
09:07AM 41.2372 -77.2714 60° Northeast 317 365 23,000  Level New York Center
09:08AM 41.2803 -77.1708 60° Northeast 317 365 23,000  Level New York Center
09:09AM 41.3250 -77.0700 59° Northeast 317 365 23,000  Level New York Center
09:10AM 41.3700 -76.9719 59° Northeast 317 365 23,000 -420 Level New York Center
09:11AM 41.4422 -76.9011 36° Northeast 312 359 22,200 -900 Descending New York Center
09:12AM 41.5128 -76.8244 39° Northeast 312 359 21,300 -900 Descending New York Center
09:13AM 41.5878 -76.7450 38° Northeast 327 376 20,400 -900 Descending New York Center
09:14AM 41.6347 -76.6356 60° Northeast 327 376 19,500 -900 Descending New York Center
09:15AM 41.6097 -76.5083 105° East 312 359 18,600 -900 Descending New York Center
09:16AM 41.5717 -76.3886 113° Southeast 312 359 17,800 -720 Descending New York Center
09:17AM 41.5267 -76.2878 121° Southeast 338 389 17,200 -420 Descending New York Center
09:18AM 41.4772 -76.1814 122° Southeast 346 398 17,000 -120 Descending New York Center
09:19AM 41.4219 -76.0664 123° Southeast 341 392 17,000  Level New York Center
09:20AM 41.3806 -75.9689 119° Southeast 336 387 17,000  Level New York Center
09:21AM 41.3375 -75.8606 118° Southeast 336 387 17,000  Level New York Center
09:22AM 41.2958 -75.7581 118° Southeast 326 375 17,000 -1,020 Level New York Center
09:23AM 41.2469 -75.6358 118° Southeast 339 390 15,000 -1,800 Descending New York Center
09:24AM 41.2056 -75.5253 116° Southeast 339 390 13,400 -1,380 Descending New York Center
09:25AM 41.1742 -75.4211 112° Southeast 330 380 12,300 -1,260 Descending New York Center
09:26AM 41.1408 -75.3142 112° Southeast 325 374 10,900 -1,680 Descending New York Center
09:27AM 41.1058 -75.1961 111° Southeast 318 366 9,000 -1,800 Descending New York Center
09:28AM 41.0722 -75.0922 113° Southeast 318 366 7,400 -1,500 Descending New York Center
09:29AM 41.0383 -74.9908 114° Southeast 308 354 6,100 -780 Descending New York Center
09:30AM 41.0286 -74.9106 99° East 290 334 5,900 -420 Descending New York Center
09:31AM 41.0225 -74.7892 94° East 279 321 5,300 -540 Descending New York Center
09:32AM 41.0192 -74.6956 93° East 279 321 4,900 -540 Descending New York Center
09:33AM 41.0147 -74.5797 93° East 285 328 4,300 -600 Descending New York Center
09:34AM 41.0097 -74.4806 94° East 285 328 3,800 -660 Descending New York Center
09:35AM 41.0028 -74.3647 95° East 290 334 3,000 -840 Descending New York Center
09:36AM 41.0000 -74.2500 92° East 286 329 2,100 -480 Descending New York TRACON
09:37AM 41.0000 -74.1667 90° East 234 269 2,100  Level New York TRACON
09:38AM 41.0000 -74.0833 90° East 229 264 2,100  Level New York TRACON
09:39AM 40.9833 -74.0000 105° East 227 261 2,100  Level New York TRACON
09:40AM 40.9667 -73.9500 114° Southeast 216 249 2,100 -300 Level New York TRACON
09:41AM 40.9167 -73.9833 207° Southwest 163 188 1,600 -540 Descending New York TRACON
09:42AM 40.9000 -74.0000 217° Southwest 147 169 1,100 -600 Descending New York TRACON
09:43AM 40.8667 -74.0333 217° Southwest 120 138 500 -600 Descending New York TRACON
09:45AM 40.8500 -74.0500 101° East  Level FlightAware Approximate
09:52AM 40.8501 -74.0608 101° East  Level Estimated